Time;durP1;ratioP1;P1;durP2;ratioP2;P2;SDS_P1;SDS_P2;PMS_P1;PMS_P2;Temp;Humidity;BMP_temperature;BMP_pressure;BME280_temperature;BME280_humidity;BME280_pressure;Samples;Min_cycle;Max_cycle;Signal;HPM_P1;HPM_P2
2022/07/21 00:01:45;;;;;;;;;4.00;4.00;;;;;21.93;63.05;101120.50;5016219;28;45344;-69
2022/07/21 00:04:10;;;;;;;;;3.00;3.00;;;;;21.90;62.74;101110.03;5016177;28;45578;-67
2022/07/21 00:06:36;;;;;;;;;3.00;3.00;;;;;21.86;62.90;101108.56;5015893;28;45481;-68
2022/07/21 00:09:02;;;;;;;;;3.50;3.50;;;;;21.87;63.59;101103.13;5015767;28;45417;-67
2022/07/21 00:11:27;;;;;;;;;7.25;7.25;;;;;21.88;63.14;101107.50;5016309;28;45578;-68
2022/07/21 00:13:52;;;;;;;;;4.00;3.25;;;;;21.88;63.23;101107.50;5016081;28;45339;-68
2022/07/21 00:16:18;;;;;;;;;4.00;4.00;;;;;21.90;63.17;101104.69;5004440;28;46025;-67
2022/07/21 00:18:43;;;;;;;;;3.50;3.50;;;;;21.85;63.09;101107.75;5002149;28;45394;-71
2022/07/21 00:21:09;;;;;;;;;4.00;4.00;;;;;21.76;63.12;101095.09;5015882;28;45400;-66
2022/07/21 00:23:34;;;;;;;;;5.00;5.00;;;;;21.77;63.08;101103.97;5015955;28;45475;-67
2022/07/21 00:25:59;;;;;;;;;5.25;5.25;;;;;21.72;63.52;101097.16;5015098;28;46311;-64
2022/07/21 00:28:25;;;;;;;;;5.00;5.00;;;;;21.69;63.34;101093.84;5015840;28;45557;-65
2022/07/21 00:30:50;;;;;;;;;3.25;3.25;;;;;21.66;63.61;101100.31;5015609;28;45435;-67
2022/07/21 00:33:16;;;;;;;;;5.00;5.00;;;;;21.63;63.79;101094.31;5015816;28;45558;-67
2022/07/21 00:35:41;;;;;;;;;5.00;5.00;;;;;21.60;63.80;101093.56;5015321;28;46281;-67
2022/07/21 00:38:06;;;;;;;;;3.00;3.00;;;;;21.57;63.97;101098.34;5015311;28;45396;-65
2022/07/21 00:40:32;;;;;;;;;4.25;4.25;;;;;21.53;63.95;101105.75;5015334;28;45610;-68
2022/07/21 00:42:58;;;;;;;;;5.50;5.50;;;;;21.50;64.13;101103.31;5015817;28;45456;-67
2022/07/21 00:45:23;;;;;;;;;3.00;3.00;;;;;21.47;63.90;101108.06;5015056;28;45629;-68
2022/07/21 00:47:49;;;;;;;;;3.00;3.00;;;;;21.41;64.02;101115.59;5015237;28;45420;-66
2022/07/21 00:50:18;;;;;;;;;4.50;4.50;;;;;21.37;64.27;101105.22;5015470;28;45309;-66
2022/07/21 00:52:45;;;;;;;;;5.25;5.25;;;;;21.33;64.29;101104.63;5014366;28;45490;-66
2022/07/21 00:55:18;;;;;;;;;3.25;3.25;;;;;21.34;64.54;101105.47;5015164;28;45324;-68
2022/07/21 00:57:45;;;;;;;;;3.75;3.75;;;;;21.29;64.52;101097.81;5015376;28;45357;-65
2022/07/21 01:00:15;;;;;;;;;4.00;4.00;;;;;21.28;64.72;101104.16;5015408;28;45438;-67
2022/07/21 01:02:41;;;;;;;;;4.25;3.25;;;;;21.25;64.63;101091.84;5015456;28;45406;-65
2022/07/21 01:05:12;;;;;;;;;4.50;4.50;;;;;21.24;64.77;101098.16;5014643;28;45778;-67
2022/07/21 01:07:39;;;;;;;;;5.00;5.00;;;;;21.22;64.86;101092.09;5014680;28;45339;-67
2022/07/21 01:10:05;;;;;;;;;4.50;4.50;;;;;21.23;65.09;101091.09;5014976;28;45292;-66
2022/07/21 01:12:30;;;;;;;;;5.00;5.00;;;;;21.21;64.98;101095.72;5014912;28;45402;-67
2022/07/21 01:14:56;;;;;;;;;4.50;4.50;;;;;21.20;65.17;101091.34;5015132;28;45665;-65
2022/07/21 01:17:21;;;;;;;;;4.00;4.00;;;;;21.21;65.13;101105.59;5014788;28;45236;-68
2022/07/21 01:19:48;;;;;;;;;5.00;5.00;;;;;21.14;65.04;101100.69;5014932;28;45709;-68
2022/07/21 01:22:13;;;;;;;;;3.75;3.75;;;;;21.10;65.24;101101.88;5014932;28;45559;-67
2022/07/21 01:24:38;;;;;;;;;5.75;5.75;;;;;21.11;65.51;101098.25;5014441;28;45865;-68
2022/07/21 01:27:04;;;;;;;;;4.75;4.75;;;;;21.10;65.13;101096.53;5014790;28;45512;-65
2022/07/21 01:29:29;;;;;;;;;6.00;5.25;;;;;21.08;65.21;101097.66;5013607;28;45602;-66
2022/07/21 01:31:54;;;;;;;;;5.25;5.25;;;;;21.04;65.15;101094.34;5015382;28;45555;-64
2022/07/21 01:34:20;;;;;;;;;4.25;4.25;;;;;21.01;65.35;101087.41;5014785;28;45482;-67
2022/07/21 01:36:46;;;;;;;;;7.00;7.00;;;;;21.01;65.24;101087.41;5014488;28;45363;-65
2022/07/21 01:41:55;;;;;;;;;5.00;5.00;;;;;20.92;65.35;101071.22;5015028;28;45308;-68
2022/07/21 01:44:21;;;;;;;;;4.75;4.75;;;;;20.89;65.36;101064.28;5014448;28;45476;-64
2022/07/21 01:46:49;;;;;;;;;5.00;5.00;;;;;20.93;65.68;101067.56;5014670;28;45324;-67
2022/07/21 01:49:16;;;;;;;;;6.50;6.50;;;;;20.94;65.86;101074.63;5014993;28;45332;-67
2022/07/21 01:51:42;;;;;;;;;6.50;6.50;;;;;20.92;65.80;101079.22;5014986;28;45412;-68
2022/07/21 01:54:08;;;;;;;;;5.75;5.75;;;;;20.92;66.18;101077.44;5014397;28;45473;-69
2022/07/21 01:56:35;;;;;;;;;6.25;6.25;;;;;20.88;65.98;101078.63;5014420;28;45414;-67
2022/07/21 01:59:02;;;;;;;;;6.50;6.50;;;;;20.91;65.73;101086.41;5014625;28;45321;-67
2022/07/21 02:01:28;;;;;;;;;7.00;7.00;;;;;20.89;66.09;101095.50;5014839;28;45526;-67
2022/07/21 02:03:56;;;;;;;;;8.25;7.25;;;;;20.86;66.15;101100.13;5014020;28;48247;-67
2022/07/21 02:06:22;;;;;;;;;7.00;7.00;;;;;20.82;66.34;101097.81;5014137;28;45190;-69
2022/07/21 02:08:47;;;;;;;;;7.75;7.75;;;;;20.77;66.43;101087.41;5014059;28;45343;-68
2022/07/21 02:11:14;;;;;;;;;8.00;8.00;;;;;20.79;66.24;101101.56;5014223;28;45498;-69
2022/07/21 02:13:39;;;;;;;;;6.25;6.25;;;;;20.81;66.39;101104.13;5014140;28;46404;-68
2022/07/21 02:16:05;;;;;;;;;7.50;7.50;;;;;20.80;66.71;101099.75;5014163;28;45296;-69
2022/07/21 02:18:31;;;;;;;;;7.00;7.00;;;;;20.77;66.46;101099.94;5014569;28;45555;-67
2022/07/21 02:20:56;;;;;;;;;8.00;8.00;;;;;20.80;66.66;101107.78;5016658;28;45394;-69
2022/07/21 02:23:23;;;;;;;;;7.50;7.50;;;;;20.81;66.71;101104.97;5017442;28;45569;-68
2022/07/21 02:25:49;;;;;;;;;9.00;9.00;;;;;20.82;66.96;101108.50;5017688;28;45487;-68
2022/07/21 02:28:14;;;;;;;;;9.00;9.00;;;;;20.84;66.67;101101.22;5017674;28;45774;-67
2022/07/21 02:30:40;;;;;;;;;11.50;11.50;;;;;20.84;66.96;101104.72;5017728;28;45436;-66
2022/07/21 02:33:06;;;;;;;;;11.00;9.25;;;;;20.82;66.72;101100.50;5017245;28;46260;-64
2022/07/21 02:35:32;;;;;;;;;10.00;10.00;;;;;20.79;66.45;101093.53;5017251;28;45385;-68
2022/07/21 02:37:58;;;;;;;;;12.25;12.25;;;;;20.78;66.85;101101.66;5017501;28;45499;-67
2022/07/21 02:40:23;;;;;;;;;9.25;9.25;;;;;20.73;66.74;101099.31;5017342;28;45502;-67
2022/07/21 02:42:48;;;;;;;;;13.75;13.75;;;;;20.74;67.22;101101.03;5015504;28;45369;-67
2022/07/21 02:45:14;;;;;;;;;13.50;13.50;;;;;20.69;66.87;101101.38;5016901;28;45319;-67
2022/07/21 02:48:04;;;;;;;;;12.50;12.50;;;;;20.69;66.95;101104.06;5017054;28;45430;-67
2022/07/21 02:50:33;;;;;;;;;12.00;12.00;;;;;20.67;67.35;101110.47;5017221;28;45491;-67
2022/07/21 02:53:00;;;;;;;;;12.00;12.00;;;;;20.65;67.14;101107.91;5017129;28;46234;-67
2022/07/21 02:55:26;;;;;;;;;13.75;12.50;;;;;20.63;67.79;101111.66;5017018;28;45449;-67
2022/07/21 02:58:09;;;;;;;;;12.50;12.50;;;;;20.62;67.50;101124.16;5017017;28;45480;-67
2022/07/21 03:00:38;;;;;;;;;11.75;11.75;;;;;20.61;67.33;101122.47;5017212;28;45914;-67
2022/07/21 03:03:03;;;;;;;;;14.50;12.50;;;;;20.58;67.69;101117.34;5016382;28;45403;-67
2022/07/21 03:05:29;;;;;;;;;12.25;11.25;;;;;20.55;67.77;101123.78;5015283;28;45905;-68
2022/07/21 03:07:55;;;;;;;;;16.00;16.00;;;;;20.52;67.92;101132.03;5015658;28;45403;-68
2022/07/21 03:10:20;;;;;;;;;18.00;13.50;;;;;20.51;68.04;101124.97;5015405;28;45374;-66
2022/07/21 03:12:46;;;;;;;;;14.75;14.75;;;;;20.46;68.18;101120.91;5016425;28;46419;-67
2022/07/21 03:15:11;;;;;;;;;19.25;14.50;;;;;20.50;67.95;101128.63;5016287;28;45336;-67
2022/07/21 03:17:36;;;;;;;;;16.75;15.25;;;;;20.47;68.14;101131.50;5016474;28;45451;-67
2022/07/21 03:20:03;;;;;;;;;15.75;15.75;;;;;20.47;68.33;101119.97;5016641;28;45343;-68
2022/07/21 03:22:28;;;;;;;;;17.25;15.50;;;;;20.50;68.87;101123.28;5015135;28;46245;-70
2022/07/21 03:24:54;;;;;;;;;16.00;15.50;;;;;20.46;68.41;101123.59;5016126;28;47610;-66
2022/07/21 03:27:19;;;;;;;;;13.00;13.00;;;;;20.46;68.43;101123.59;5016172;28;45510;-67
2022/07/21 03:29:44;;;;;;;;;13.75;13.75;;;;;20.47;68.64;101127.97;5015026;28;45654;-66
2022/07/21 03:32:10;;;;;;;;;11.00;11.00;;;;;20.45;68.36;101133.44;5016006;28;48172;-67
2022/07/21 03:34:35;;;;;;;;;17.00;13.00;;;;;20.43;68.80;101132.69;5014781;28;45947;-67
2022/07/21 03:37:01;;;;;;;;;16.00;14.75;;;;;20.42;68.42;101134.50;5016398;28;45442;-67
2022/07/21 03:39:26;;;;;;;;;17.00;16.00;;;;;20.37;68.39;101139.34;5016849;28;45441;-65
2022/07/21 03:41:51;;;;;;;;;13.00;11.75;;;;;20.41;68.90;101148.00;5016298;28;45422;-69
2022/07/21 03:44:17;;;;;;;;;11.50;11.50;;;;;20.36;68.72;101140.31;5016514;28;45405;-68
2022/07/21 03:46:42;;;;;;;;;15.75;13.50;;;;;20.39;68.56;101149.94;5016398;28;45484;-67
2022/07/21 03:49:08;;;;;;;;;18.50;18.50;;;;;20.31;68.99;101150.47;5015171;28;45322;-67
2022/07/21 03:51:33;;;;;;;;;17.00;15.50;;;;;20.21;69.37;101144.09;5016143;28;45983;-69
2022/07/21 03:53:59;;;;;;;;;19.50;17.50;;;;;20.02;70.40;101147.22;5016499;28;45451;-69
2022/07/21 03:56:24;;;;;;;;;19.25;19.25;;;;;19.89;71.18;101148.06;5016105;28;45296;-69
2022/07/21 03:58:50;;;;;;;;;18.25;18.25;;;;;19.74;70.93;101151.81;5016514;28;45460;-70
2022/07/21 04:01:15;;;;;;;;;22.00;22.00;;;;;19.71;71.92;101148.41;5016036;28;46160;-69
2022/07/21 04:03:40;;;;;;;;;21.00;21.00;;;;;19.65;71.83;101153.31;5016661;28;45340;-70
2022/07/21 04:06:10;;;;;;;;;20.00;19.50;;;;;19.66;72.82;101153.19;5016175;28;45297;-70
2022/07/21 04:08:35;;;;;;;;;18.50;18.50;;;;;19.64;72.00;101155.13;5016258;28;45269;-69
2022/07/21 04:11:01;;;;;;;;;21.00;20.50;;;;;19.68;72.42;101153.94;5015715;28;46429;-69
2022/07/21 04:13:27;;;;;;;;;14.25;12.50;;;;;19.81;72.11;101153.09;5011136;28;45339;-70
2022/07/21 04:15:52;;;;;;;;;18.50;18.50;;;;;19.96;71.57;101154.69;4996032;28;45439;-70
2022/07/21 04:18:17;;;;;;;;;17.50;17.50;;;;;20.07;71.43;101159.28;4994440;28;45458;-68
2022/07/21 04:20:43;;;;;;;;;20.25;20.25;;;;;20.10;71.23;101155.53;4994139;28;46240;-69
2022/07/21 04:23:08;;;;;;;;;19.00;19.00;;;;;20.08;71.33;101150.31;4995585;28;45423;-69
2022/07/21 04:25:35;;;;;;;;;19.50;19.50;;;;;20.12;71.40;101157.16;4994472;28;45374;-69
2022/07/21 04:28:00;;;;;;;;;20.25;20.25;;;;;20.12;71.51;101166.97;4995958;28;45198;-67
2022/07/21 04:30:26;;;;;;;;;25.00;24.00;;;;;20.23;70.89;101168.88;4995835;28;45373;-68
2022/07/21 04:32:52;;;;;;;;;20.25;20.25;;;;;20.36;70.86;101163.50;4995598;28;45306;-67
2022/07/21 04:35:18;;;;;;;;;22.00;21.00;;;;;20.52;70.47;101166.75;4995578;28;45248;-66
2022/07/21 04:37:43;;;;;;;;;21.75;21.75;;;;;20.67;70.21;101174.63;4995817;28;45317;-68
2022/07/21 04:40:12;;;;;;;;;26.75;26.50;;;;;20.76;69.62;101171.25;4995234;28;45538;-69
2022/07/21 04:42:38;;;;;;;;;25.25;22.25;;;;;20.69;69.93;101164.66;4995045;28;45435;-68
2022/07/21 04:45:04;;;;;;;;;20.75;20.75;;;;;20.62;69.57;101174.09;4995264;28;45433;-69
2022/07/21 04:47:30;;;;;;;;;23.50;20.50;;;;;20.63;69.50;101173.97;4995579;28;45649;-67
2022/07/21 04:49:55;;;;;;;;;21.00;20.75;;;;;20.75;69.63;101176.75;4995510;28;45513;-68
2022/07/21 04:52:21;;;;;;;;;21.25;19.50;;;;;20.86;69.67;101174.97;4995278;28;45435;-67
2022/07/21 04:54:46;;;;;;;;;23.25;23.25;;;;;20.95;69.10;101176.13;4995438;28;45251;-67
2022/07/21 04:57:12;;;;;;;;;19.25;19.25;;;;;20.89;68.88;101176.59;4995295;28;45518;-67
2022/07/21 04:59:37;;;;;;;;;19.50;19.50;;;;;20.80;69.26;101175.44;4995112;28;46551;-66
2022/07/21 05:02:03;;;;;;;;;18.25;18.25;;;;;20.92;69.07;101178.16;4995101;28;45348;-71
2022/07/21 05:04:29;;;;;;;;;17.75;17.75;;;;;21.05;68.84;101178.94;4994115;28;45436;-69
2022/07/21 05:06:54;;;;;;;;;22.25;22.25;;;;;21.23;68.43;101170.53;4995445;28;45444;-68
2022/07/21 05:09:20;;;;;;;;;23.00;23.00;;;;;21.35;67.98;101168.72;4994720;28;46334;-69
2022/07/21 05:11:45;;;;;;;;;25.00;25.00;;;;;21.30;67.25;101167.25;4994843;28;45442;-69
2022/07/21 05:14:12;;;;;;;;;19.00;19.00;;;;;21.33;67.85;101176.88;5014895;28;45520;-68
2022/07/21 05:16:37;;;;;;;;;21.00;21.00;;;;;21.53;66.87;101175.31;5014442;28;45578;-69
2022/07/21 05:19:03;;;;;;;;;22.50;22.50;;;;;21.66;66.58;101177.94;5014456;28;45490;-68
2022/07/21 05:21:28;;;;;;;;;22.75;22.75;;;;;21.76;66.22;101171.88;5014737;28;45542;-68
2022/07/21 05:23:54;;;;;;;;;19.00;19.00;;;;;21.84;66.00;101180.16;5014733;28;46016;-67
2022/07/21 05:26:19;;;;;;;;;19.50;19.50;;;;;21.83;65.45;101184.66;5014875;28;45389;-68
2022/07/21 05:28:44;;;;;;;;;24.00;23.50;;;;;21.82;65.89;101182.97;5014576;28;45498;-68
2022/07/21 05:31:10;;;;;;;;;20.50;20.50;;;;;21.81;65.23;101178.59;5014645;28;45766;-69
2022/07/21 05:33:36;;;;;;;;;21.00;21.00;;;;;21.80;65.68;101181.38;5014686;28;45441;-70
2022/07/21 05:36:03;;;;;;;;;20.00;20.00;;;;;21.86;65.50;101188.91;5013251;28;45436;-70
2022/07/21 05:38:28;;;;;;;;;22.50;22.25;;;;;21.74;65.35;101186.22;5014545;28;47507;-69
2022/07/21 05:40:54;;;;;;;;;19.00;19.00;;;;;21.57;66.03;101190.19;5015634;28;45322;-67
2022/07/21 05:43:19;;;;;;;;;24.25;24.25;;;;;21.52;66.10;101195.03;5016067;28;45528;-69
2022/07/21 05:45:44;;;;;;;;;24.25;24.25;;;;;21.49;65.83;101197.09;5015065;28;45523;-68
2022/07/21 05:48:10;;;;;;;;;25.75;25.75;;;;;21.42;66.05;101186.88;5016063;28;45466;-68
2022/07/21 05:50:35;;;;;;;;;24.50;24.50;;;;;21.47;66.35;101193.69;5014438;28;45312;-69
2022/07/21 05:53:00;;;;;;;;;21.00;21.00;;;;;21.42;66.59;101197.59;5014016;28;45459;-68
2022/07/21 05:55:26;;;;;;;;;19.00;19.00;;;;;21.48;66.50;101198.06;5017909;28;45649;-67
2022/07/21 05:57:51;;;;;;;;;19.75;19.00;;;;;21.48;66.40;101211.47;5018134;28;46729;-68
2022/07/21 06:00:17;;;;;;;;;20.75;19.75;;;;;21.44;66.34;101206.34;5017659;28;45558;-70
2022/07/21 06:02:46;;;;;;;;;17.00;17.00;;;;;21.29;66.90;101215.53;5017827;28;45397;-68
2022/07/21 06:05:12;;;;;;;;;20.75;20.75;;;;;21.20;67.39;101210.84;5017683;28;45484;-68
2022/07/21 06:07:38;;;;;;;;;20.50;20.50;;;;;21.10;67.76;101214.22;5017342;28;46387;-66
2022/07/21 06:10:04;;;;;;;;;24.50;22.75;;;;;21.09;67.72;101219.72;5017241;28;45247;-68
2022/07/21 06:12:30;;;;;;;;;25.25;22.25;;;;;21.10;67.70;101219.56;5017407;28;45458;-64
2022/07/21 06:14:55;;;;;;;;;19.00;19.00;;;;;21.12;67.34;101222.16;5017961;28;45614;-69
2022/07/21 06:17:22;;;;;;;;;20.00;20.00;;;;;21.11;67.49;101213.25;5011762;28;47874;-66
2022/07/21 06:19:47;;;;;;;;;15.00;15.00;;;;;21.19;67.59;101227.88;5029863;28;45478;-67
2022/07/21 06:22:13;;;;;;;;;24.00;23.00;;;;;21.24;67.45;101223.06;5024120;28;45280;-70
2022/07/21 06:24:38;;;;;;;;;24.50;24.50;;;;;21.27;67.20;101221.00;5014782;28;45473;-68
2022/07/21 06:27:03;;;;;;;;;25.75;25.75;;;;;21.31;66.73;101219.78;5016779;28;45660;-70
2022/07/21 06:29:29;;;;;;;;;23.50;23.50;;;;;21.33;66.78;101222.38;5017747;28;46222;-73
2022/07/21 06:31:54;;;;;;;;;23.25;23.25;;;;;21.41;66.75;101217.28;5018111;28;45367;-70
2022/07/21 06:34:19;;;;;;;;;25.25;25.25;;;;;21.50;66.70;101226.41;5016803;28;45247;-71
2022/07/21 06:36:45;;;;;;;;;22.50;22.50;;;;;21.56;66.72;101227.78;5016480;28;46008;-68
2022/07/21 06:39:12;;;;;;;;;25.50;25.50;;;;;21.60;66.31;101222.06;5017050;28;45384;-66
2022/07/21 06:41:38;;;;;;;;;26.50;26.50;;;;;21.72;66.22;101222.97;5014870;28;45447;-69
2022/07/21 06:44:05;;;;;;;;;27.50;26.50;;;;;21.84;65.61;101221.19;5016777;28;45427;-65
2022/07/21 06:46:31;;;;;;;;;25.00;25.00;;;;;21.97;65.26;101221.06;5016898;28;47334;-67
2022/07/21 06:48:56;;;;;;;;;24.25;22.25;;;;;22.03;65.18;101225.94;5017420;28;45984;-67
2022/07/21 06:51:21;;;;;;;;;21.00;21.00;;;;;22.11;65.09;101222.66;5017267;28;45782;-71
2022/07/21 06:53:47;;;;;;;;;23.25;22.75;;;;;22.20;64.81;101234.44;5019302;28;45419;-71
2022/07/21 06:56:12;;;;;;;;;23.25;23.25;;;;;22.31;64.75;101223.75;5014919;28;45493;-71
2022/07/21 06:58:37;;;;;;;;;26.50;26.50;;;;;22.39;64.32;101220.44;5016508;28;54413;-71
2022/07/21 07:01:03;;;;;;;;;22.75;22.75;;;;;22.51;63.77;101224.00;5017327;28;45304;-71
2022/07/21 07:03:28;;;;;;;;;20.75;20.50;;;;;22.53;63.99;101230.09;5018373;28;46317;-69
2022/07/21 07:05:53;;;;;;;;;23.00;22.75;;;;;22.56;63.53;101226.31;5014679;28;46099;-71
2022/07/21 07:08:19;;;;;;;;;24.00;24.00;;;;;22.64;63.30;101231.88;5017578;28;45492;-71
2022/07/21 07:10:48;;;;;;;;;20.75;20.00;;;;;22.68;62.86;101227.16;5011292;28;45366;-71
2022/07/21 07:13:15;;;;;;;;;25.00;25.00;;;;;22.74;62.96;101240.88;5016881;28;45316;-72
2022/07/21 07:15:40;;;;;;;;;23.25;23.25;;;;;22.79;62.53;101240.53;5015393;28;45735;-72
2022/07/21 07:18:06;;;;;;;;;24.75;24.75;;;;;22.86;62.36;101243.56;5014556;28;45583;-73
2022/07/21 07:20:32;;;;;;;;;24.00;24.00;;;;;22.90;62.30;101242.34;5016733;28;45474;-70
2022/07/21 07:22:57;;;;;;;;;23.75;23.75;;;;;23.00;61.71;101240.59;5015444;28;45594;-73
2022/07/21 07:25:22;;;;;;;;;24.75;24.75;;;;;23.06;61.76;101239.22;5016574;28;45392;-72
2022/07/21 07:27:49;;;;;;;;;24.25;24.25;;;;;23.15;61.36;101241.13;5016861;28;45359;-71
2022/07/21 07:30:16;;;;;;;;;25.25;25.25;;;;;23.25;61.23;101240.41;5017059;28;45344;-70
2022/07/21 07:32:42;;;;;;;;;24.00;24.00;;;;;23.41;61.04;101250.72;5017340;28;45361;-72
2022/07/21 07:35:12;;;;;;;;;21.50;21.50;;;;;23.52;61.00;101249.81;5015782;28;45610;-73
2022/07/21 07:37:39;;;;;;;;;22.25;22.25;;;;;23.59;60.63;101245.63;5016818;28;45403;-72
2022/07/21 07:40:07;;;;;;;;;24.75;24.75;;;;;23.65;60.55;101258.53;5018075;28;45316;-65
2022/07/21 07:42:33;;;;;;;;;26.00;26.00;;;;;23.68;60.27;101258.25;5020368;28;45622;-68
2022/07/21 07:44:59;;;;;;;;;27.50;27.50;;;;;23.62;59.87;101245.34;5020679;28;46082;-74
2022/07/21 07:47:25;;;;;;;;;26.25;25.75;;;;;23.63;60.33;101255.13;5016926;28;45443;-69
2022/07/21 07:49:52;;;;;;;;;23.25;23.25;;;;;23.69;60.05;101256.41;5015131;28;45495;-71
2022/07/21 07:52:19;;;;;;;;;26.00;25.00;;;;;23.70;59.70;101253.59;5016670;28;45495;-72
2022/07/21 07:54:44;;;;;;;;;25.50;25.50;;;;;23.75;59.82;101264.81;5016686;28;46855;-72
2022/07/21 07:57:10;;;;;;;;;27.50;27.50;;;;;23.71;59.87;101266.06;5016228;28;45324;-73
2022/07/21 07:59:35;;;;;;;;;32.50;30.00;;;;;23.68;59.26;101266.31;5016282;28;45308;-66
2022/07/21 08:02:01;;;;;;;;;25.75;25.50;;;;;23.76;59.28;101266.50;5015244;28;45406;-73
2022/07/21 08:04:26;;;;;;;;;28.75;28.25;;;;;23.82;59.30;101261.59;5016106;28;46233;-73
2022/07/21 08:06:51;;;;;;;;;27.75;27.50;;;;;23.86;58.76;101271.94;5016268;28;45230;-68
2022/07/21 08:09:18;;;;;;;;;32.00;29.75;;;;;23.92;58.88;101270.56;5016178;28;45354;-73
2022/07/21 08:11:46;;;;;;;;;42.75;37.00;;;;;23.92;58.87;101267.88;5016480;28;45438;-73
2022/07/21 08:14:13;;;;;;;;;26.50;26.50;;;;;23.99;58.21;101277.09;5016098;28;46340;-73
2022/07/21 08:16:39;;;;;;;;;28.50;28.25;;;;;24.01;58.66;101275.16;5015242;28;45466;-71
2022/07/21 08:19:04;;;;;;;;;22.50;22.50;;;;;24.02;58.60;101276.88;5016482;28;45314;-72
2022/07/21 08:21:30;;;;;;;;;27.75;27.50;;;;;24.06;57.95;101289.06;5016387;28;45609;-72
2022/07/21 08:23:57;;;;;;;;;29.75;28.75;;;;;24.00;58.33;101280.69;5016765;28;47074;-74
2022/07/21 08:26:23;;;;;;;;;26.50;26.50;;;;;24.01;58.37;101274.31;5016576;28;45402;-73
2022/07/21 08:28:48;;;;;;;;;34.50;30.25;;;;;24.05;58.11;101271.22;5016892;28;45744;-71
2022/07/21 08:31:13;;;;;;;;;28.50;28.00;;;;;24.16;58.11;101278.38;5017206;28;45598;-73
2022/07/21 08:33:38;;;;;;;;;23.25;23.25;;;;;24.19;57.63;101280.78;5014777;28;47123;-72
2022/07/21 08:36:04;;;;;;;;;29.50;28.75;;;;;24.14;57.50;101282.16;5015421;28;45275;-72
2022/07/21 08:38:30;;;;;;;;;27.50;27.50;;;;;24.21;57.68;101281.50;5016924;28;45530;-74
2022/07/21 08:40:55;;;;;;;;;28.25;27.25;;;;;24.19;56.73;101286.16;5016837;28;45481;-73
2022/07/21 08:43:23;;;;;;;;;17.00;17.00;;;;;24.20;57.41;101282.50;5014587;28;48045;-72
2022/07/21 08:45:49;;;;;;;;;29.75;28.75;;;;;24.32;57.23;101285.91;5015959;28;45426;-73
2022/07/21 08:48:19;;;;;;;;;28.50;28.25;;;;;24.40;56.55;101284.41;5015876;28;45254;-72
2022/07/21 08:50:44;;;;;;;;;29.50;29.00;;;;;24.41;56.79;101286.97;5016474;28;45622;-69
2022/07/21 08:53:10;;;;;;;;;28.00;28.00;;;;;24.49;56.86;101297.03;5016420;28;46447;-70
2022/07/21 08:55:39;;;;;;;;;29.25;28.75;;;;;24.53;56.58;101290.41;5016252;28;45424;-72
2022/07/21 08:58:08;;;;;;;;;29.75;29.00;;;;;24.59;56.41;101289.88;5014259;28;45351;-71
2022/07/21 09:00:39;;;;;;;;;37.25;31.50;;;;;24.61;56.77;101290.56;5014029;28;45256;-69
2022/07/21 09:03:22;;;;;;;;;32.25;29.50;;;;;24.73;56.03;101280.56;5015369;28;45458;-70
2022/07/21 09:06:04;;;;;;;;;28.50;28.25;;;;;24.88;55.93;101294.50;5015040;28;45430;-72
2022/07/21 09:08:32;;;;;;;;;31.75;30.50;;;;;24.91;55.69;101291.53;5015259;28;45463;-70
2022/07/21 09:11:20;;;;;;;;;29.00;28.75;;;;;24.98;55.15;101280.22;5015086;28;45444;-72
2022/07/21 09:14:06;;;;;;;;;25.00;25.00;;;;;25.13;55.65;101289.56;5014801;28;46472;-68
2022/07/21 09:16:43;;;;;;;;;31.25;30.25;;;;;25.32;54.98;101290.56;5013502;28;45363;-71
2022/07/21 09:19:31;;;;;;;;;31.50;30.25;;;;;25.52;54.33;101294.16;5015206;28;45253;-70
2022/07/21 09:21:59;;;;;;;;;32.25;29.25;;;;;25.64;53.91;101284.09;5015286;28;45347;-68
2022/07/21 09:24:34;;;;;;;;;29.75;29.25;;;;;25.76;53.82;101287.47;5014923;28;46335;-70
2022/07/21 09:27:14;;;;;;;;;30.75;29.75;;;;;25.85;53.46;101285.75;5013414;28;45341;-71
2022/07/21 09:29:44;;;;;;;;;26.75;26.75;;;;;25.93;53.23;101293.97;5014873;28;45388;-65
2022/07/21 09:32:17;;;;;;;;;28.00;28.00;;;;;25.90;52.81;101292.38;5014965;28;45387;-69
2022/07/21 09:34:44;;;;;;;;;30.00;29.25;;;;;25.89;52.68;101295.25;5014853;28;46231;-71
2022/07/21 09:37:10;;;;;;;;;24.75;24.75;;;;;25.90;52.34;101288.84;5015535;28;45300;-71
2022/07/21 09:39:46;;;;;;;;;27.75;27.00;;;;;26.05;52.39;101297.34;5013901;28;45372;-69
2022/07/21 09:42:24;;;;;;;;;29.50;28.50;;;;;26.20;52.00;101287.81;5014266;28;45315;-71
2022/07/21 09:44:55;;;;;;;;;37.75;34.25;;;;;26.28;52.00;101284.38;5015043;28;45816;-72
2022/07/21 09:47:23;;;;;;;;;29.25;28.75;;;;;26.43;51.64;101289.28;5014611;28;45469;-71
2022/07/21 09:49:49;;;;;;;;;30.00;26.25;;;;;26.49;51.45;101294.06;5014218;28;45284;-72
2022/07/21 09:52:21;;;;;;;;;29.50;29.00;;;;;26.47;51.09;101293.38;5014360;28;45590;-68
2022/07/21 09:54:46;;;;;;;;;28.25;28.25;;;;;26.40;51.17;101285.03;5013972;28;45408;-72
2022/07/21 09:57:12;;;;;;;;;29.25;26.00;;;;;26.35;51.14;101276.53;5014041;28;45416;-65
2022/07/21 09:59:39;;;;;;;;;24.00;24.00;;;;;26.30;50.92;101285.06;5014654;28;45428;-70
2022/07/21 10:02:05;;;;;;;;;27.25;27.00;;;;;26.38;50.72;101276.25;5014458;28;45314;-71
2022/07/21 10:04:34;;;;;;;;;27.25;27.25;;;;;26.44;50.90;101281.03;5012224;28;47715;-73
2022/07/21 10:07:01;;;;;;;;;26.25;26.00;;;;;26.45;50.91;101280.03;5014011;28;45308;-68
2022/07/21 10:09:27;;;;;;;;;28.25;27.25;;;;;26.49;50.77;101276.06;5014416;28;45352;-74
2022/07/21 10:11:53;;;;;;;;;29.50;28.25;;;;;26.51;50.56;101275.91;5014416;28;45349;-74
2022/07/21 10:14:19;;;;;;;;;29.75;29.00;;;;;26.75;50.30;101269.09;5012651;28;46902;-73
2022/07/21 10:16:44;;;;;;;;;27.25;27.00;;;;;26.98;50.03;101275.78;5014032;28;45349;-68
2022/07/21 10:19:18;;;;;;;;;24.25;22.75;;;;;26.97;49.83;101278.63;5014910;28;45434;-74
2022/07/21 10:22:02;;;;;;;;;27.75;26.75;;;;;26.61;49.98;101276.72;5013031;28;45477;-67
2022/07/21 10:24:29;;;;;;;;;24.50;22.75;;;;;26.43;50.15;101275.78;5014119;28;45334;-71
2022/07/21 10:27:12;;;;;;;;;22.50;21.00;;;;;26.24;50.02;101275.75;5013787;28;45596;-72
2022/07/21 10:30:01;;;;;;;;;26.50;24.75;;;;;26.19;50.79;101261.00;5014215;28;45289;-72
2022/07/21 10:32:31;;;;;;;;;21.75;19.75;;;;;26.46;50.36;101278.19;5014158;28;45324;-72
2022/07/21 10:34:59;;;;;;;;;24.00;23.00;;;;;26.58;49.67;101281.53;5012570;28;47066;-72
2022/07/21 10:37:40;;;;;;;;;29.50;27.50;;;;;26.71;49.82;101281.19;5014050;28;45346;-72
2022/07/21 10:40:27;;;;;;;;;26.75;26.75;;;;;26.73;49.40;101287.28;5013814;28;45210;-69
2022/07/21 10:42:58;;;;;;;;;29.50;27.50;;;;;26.84;49.46;101289.81;5017368;28;45825;-74
2022/07/21 10:45:37;;;;;;;;;23.75;22.50;;;;;26.94;48.76;101285.19;5016950;28;46201;-69
2022/07/21 10:48:05;;;;;;;;;26.75;25.75;;;;;27.19;49.19;101282.75;5017088;28;45290;-69
2022/07/21 10:50:35;;;;;;;;;26.50;26.50;;;;;27.29;48.75;101281.81;5017170;28;45364;-73
2022/07/21 10:53:03;;;;;;;;;27.75;24.75;;;;;27.18;48.45;101278.34;5017161;28;45217;-70
2022/07/21 10:55:35;;;;;;;;;21.50;21.50;;;;;26.91;48.58;101285.50;5017339;28;46394;-71
2022/07/21 10:58:14;;;;;;;;;26.75;24.25;;;;;26.75;49.18;101282.59;5015613;28;46202;-70
2022/07/21 11:00:45;;;;;;;;;24.25;22.75;;;;;26.76;48.64;101273.50;5017690;28;45546;-71
2022/07/21 11:03:15;;;;;;;;;29.25;28.25;;;;;27.13;48.04;101280.66;5017474;28;45369;-68
2022/07/21 11:06:07;;;;;;;;;24.25;24.25;;;;;27.46;48.15;101275.53;5017044;28;47465;-70
2022/07/21 11:08:51;;;;;;;;;22.00;21.50;;;;;27.75;47.50;101279.88;5016701;28;45371;-71
2022/07/21 11:11:25;;;;;;;;;23.50;23.50;;;;;28.02;47.49;101272.59;5016868;28;45249;-72
2022/07/21 11:14:04;;;;;;;;;25.50;25.50;;;;;28.21;46.50;101281.50;5015702;28;45648;-72
2022/07/21 11:16:42;;;;;;;;;19.50;19.50;;;;;28.14;45.55;101278.63;5015168;28;48492;-73